Time,TemperatureF,DewpointF,PressureIn,WindDirection,WindDirectionDegrees,WindSpeedMPH,WindSpeedGustMPH,Humidity,HourlyPrecipIn,Conditions,Clouds,dailyrainin,SoftwareType,DateUTC
2013-01-04 00:00:00,11.8,6.6,29.47,SSW,202,6.0,6.7,79,0.00,,,-99.99,VWS V12.07,2013-01-04 06:00:00,
2013-01-04 00:10:00,11.6,6.4,29.49,SSW,202,0.0,6.2,79,0.00,,,-99.99,VWS V12.07,2013-01-04 06:10:00,
2013-01-04 00:15:00,11.4,6.2,29.48,SSW,202,4.9,6.2,79,0.00,,,-99.99,VWS V12.07,2013-01-04 06:15:00,
2013-01-04 00:20:00,11.4,6.2,29.48,SSW,202,0.0,10.0,79,0.00,,,-99.99,VWS V12.07,2013-01-04 06:20:00,
2013-01-04 00:25:00,11.4,6.4,29.47,SSW,202,10.0,10.0,80,0.00,,,-99.99,VWS V12.07,2013-01-04 06:25:00,
2013-01-04 00:30:00,11.4,6.4,29.47,SSW,202,0.0,10.0,80,0.00,,,-99.99,VWS V12.07,2013-01-04 06:30:00,
2013-01-04 00:35:00,11.3,6.3,29.47,SSW,202,5.3,5.3,80,0.00,,,-99.99,VWS V12.07,2013-01-04 06:35:00,
2013-01-04 00:40:00,11.3,6.3,29.47,SSW,202,0.0,10.9,80,0.00,,,-99.99,VWS V12.07,2013-01-04 06:40:00,
2013-01-04 00:45:00,11.3,6.3,29.47,SSW,202,5.1,10.9,80,0.00,,,-99.99,VWS V12.07,2013-01-04 06:45:00,
2013-01-04 00:50:00,11.3,6.3,29.47,SSW,202,5.8,5.8,80,0.00,,,-99.99,VWS V12.07,2013-01-04 06:50:00,
2013-01-04 00:55:00,11.1,6.2,29.48,SSW,202,0.0,5.8,80,0.00,,,-99.99,VWS V12.07,2013-01-04 06:55:00,
2013-01-04 01:00:00,11.1,6.2,29.48,SSW,202,0.0,5.8,80,0.00,,,-99.99,VWS V12.07,2013-01-04 07:00:00,
2013-01-04 01:10:00,11.1,6.2,29.47,SSW,202,0.0,0.0,80,0.00,,,-99.99,VWS V12.07,2013-01-04 07:10:00,
2013-01-04 01:15:00,11.1,6.2,29.47,SSW,202,0.0,0.0,80,0.00,,,-99.99,VWS V12.07,2013-01-04 07:15:00,
2013-01-04 01:20:00,11.1,6.4,29.46,SSW,202,0.0,0.0,81,0.00,,,-99.99,VWS V12.07,2013-01-04 07:20:00,
2013-01-04 01:25:00,11.1,6.4,29.46,SSW,202,5.5,5.5,81,0.00,,,-99.99,VWS V12.07,2013-01-04 07:25:00,
2013-01-04 01:30:00,11.1,6.4,29.45,SSW,202,0.0,5.5,81,0.00,,,-99.99,VWS V12.07,2013-01-04 07:30:00,
2013-01-04 01:35:00,11.1,6.4,29.45,SSW,202,0.0,4.6,81,0.00,,,-99.99,VWS V12.07,2013-01-04 07:35:00,
2013-01-04 01:40:00,11.1,6.4,29.44,SSW,202,0.0,4.6,81,0.00,,,-99.99,VWS V12.07,2013-01-04 07:40:00,
2013-01-04 01:45:00,11.1,6.4,29.44,SSW,202,0.0,4.6,81,0.00,,,-99.99,VWS V12.07,2013-01-04 07:45:00,
2013-01-04 01:50:00,11.1,6.4,29.45,SSW,202,0.0,0.0,81,0.00,,,-99.99,VWS V12.07,2013-01-04 07:50:00,
2013-01-04 01:55:00,11.1,6.4,29.44,SSW,202,0.0,0.0,81,0.00,,,-99.99,VWS V12.07,2013-01-04 07:55:00,
2013-01-04 02:00:00,11.1,6.4,29.45,SSW,202,0.0,0.0,81,0.00,,,-99.99,VWS V12.07,2013-01-04 08:00:00,
2013-01-04 02:10:00,10.9,6.2,29.47,SSW,202,0.0,0.0,81,0.00,,,-99.99,VWS V12.07,2013-01-04 08:10:00,
2013-01-04 02:15:00,10.9,6.2,29.49,SSW,202,0.0,0.0,81,0.00,,,-99.99,VWS V12.07,2013-01-04 08:15:00,
2013-01-04 02:20:00,10.9,6.2,29.49,SSW,202,0.0,0.0,81,0.00,,,-99.99,VWS V12.07,2013-01-04 08:20:00,
2013-01-04 02:25:00,10.9,6.2,29.49,SSW,202,0.0,0.0,81,0.00,,,-99.99,VWS V12.07,2013-01-04 08:25:00,
2013-01-04 02:30:00,10.9,6.5,29.49,SSW,202,0.0,0.0,82,0.00,,,-99.99,VWS V12.07,2013-01-04 08:30:00,
2013-01-04 02:35:00,10.7,6.0,29.49,SSW,202,0.0,0.0,81,0.00,,,-99.99,VWS V12.07,2013-01-04 08:35:00,
2013-01-04 02:40:00,10.7,6.0,29.49,SSW,202,0.0,0.0,81,0.00,,,-99.99,VWS V12.07,2013-01-04 08:40:00,
2013-01-04 02:45:00,10.7,6.0,29.49,SSW,202,0.0,0.0,81,0.00,,,-99.99,VWS V12.07,2013-01-04 08:45:00,
2013-01-04 02:50:00,10.5,5.8,29.50,SSW,202,0.0,0.0,81,0.00,,,-99.99,VWS V12.07,2013-01-04 08:50:00,
2013-01-04 02:55:00,10.5,5.8,29.49,SSW,202,0.0,0.0,81,0.00,,,-99.99,VWS V12.07,2013-01-04 08:55:00,
2013-01-04 03:00:00,10.5,5.8,29.48,SSW,202,0.0,0.0,81,0.00,,,-99.99,VWS V12.07,2013-01-04 09:00:00,
2013-01-04 03:05:00,10.5,5.8,29.48,SSW,202,0.0,0.0,81,0.00,,,-99.99,VWS V12.07,2013-01-04 09:05:00,
2013-01-04 03:10:00,10.5,5.8,29.47,SSW,202,0.0,0.0,81,0.00,,,-99.99,VWS V12.07,2013-01-04 09:10:00,
2013-01-04 03:15:00,10.4,5.7,29.47,SSW,202,0.0,0.0,81,0.00,,,-99.99,VWS V12.07,2013-01-04 09:15:00,
2013-01-04 03:20:00,10.2,5.8,29.46,SSW,202,0.0,0.0,82,0.00,,,-99.99,VWS V12.07,2013-01-04 09:20:00,
2013-01-04 03:25:00,10.2,5.8,29.45,SSW,202,0.0,0.0,82,0.00,,,-99.99,VWS V12.07,2013-01-04 09:25:00,
2013-01-04 03:30:00,10.2,5.8,29.45,SSW,202,0.0,0.0,82,0.00,,,-99.99,VWS V12.07,2013-01-04 09:30:00,
2013-01-04 03:35:00,10.2,5.8,29.44,SSW,202,0.0,0.0,82,0.00,,,-99.99,VWS V12.07,2013-01-04 09:35:00,
2013-01-04 03:40:00,10.2,5.8,29.44,SSW,202,0.0,0.0,82,0.00,,,-99.99,VWS V12.07,2013-01-04 09:40:00,
2013-01-04 03:45:00,10.2,5.8,29.44,SSW,202,0.0,0.0,82,0.00,,,-99.99,VWS V12.07,2013-01-04 09:45:00,
2013-01-04 03:50:00,10.2,5.8,29.44,SSW,202,0.0,0.0,82,0.00,,,-99.99,VWS V12.07,2013-01-04 09:50:00,
2013-01-04 03:55:00,10.2,5.8,29.44,SSW,202,0.0,0.0,82,0.00,,,-99.99,VWS V12.07,2013-01-04 09:55:00,
2013-01-04 04:00:00,10.2,5.8,29.46,SSW,202,0.0,0.0,82,0.00,,,-99.99,VWS V12.07,2013-01-04 10:00:00,
2013-01-04 04:05:00,10.2,5.8,29.47,SSW,202,4.2,4.2,82,0.00,,,-99.99,VWS V12.07,2013-01-04 10:05:00,
2013-01-04 04:10:00,10.2,5.8,29.47,SSW,202,0.0,4.2,82,0.00,,,-99.99,VWS V12.07,2013-01-04 10:10:00,
2013-01-04 04:15:00,10.0,5.6,29.47,SSW,202,0.0,4.2,82,0.00,,,-99.99,VWS V12.07,2013-01-04 10:15:00,
2013-01-04 04:20:00,10.0,5.6,29.47,SSW,202,0.0,0.0,82,0.00,,,-99.99,VWS V12.07,2013-01-04 10:20:00,
2013-01-04 04:25:00,10.0,5.6,29.47,SSW,202,0.0,0.0,82,0.00,,,-99.99,VWS V12.07,2013-01-04 10:25:00,
2013-01-04 04:30:00,10.2,5.8,29.47,SSW,202,0.0,0.0,82,0.00,,,-99.99,VWS V12.07,2013-01-04 10:30:00,
2013-01-04 04:35:00,10.2,5.8,29.47,SSW,202,0.0,0.0,82,0.00,,,-99.99,VWS V12.07,2013-01-04 10:35:00,
2013-01-04 04:40:00,10.2,5.8,29.47,SSW,202,0.0,0.0,82,0.00,,,-99.99,VWS V12.07,2013-01-04 10:40:00,
2013-01-04 04:45:00,10.2,5.8,29.46,SSW,202,0.0,0.0,82,0.00,,,-99.99,VWS V12.07,2013-01-04 10:45:00,
2013-01-04 04:50:00,10.0,5.6,29.45,SSW,202,0.0,0.0,82,0.00,,,-99.99,VWS V12.07,2013-01-04 10:50:00,
2013-01-04 04:55:00,10.0,5.9,29.46,SSW,202,0.0,0.0,83,0.00,,,-99.99,VWS V12.07,2013-01-04 10:55:00,
2013-01-04 05:00:00,10.0,5.9,29.46,SSW,202,0.0,0.0,83,0.00,,,-99.99,VWS V12.07,2013-01-04 11:00:00,
2013-01-04 05:10:00,10.0,5.9,29.46,SSW,202,0.0,0.0,83,0.00,,,-99.99,VWS V12.07,2013-01-04 11:10:00,
2013-01-04 05:15:00,10.0,5.9,29.45,SSW,202,0.0,0.0,83,0.00,,,-99.99,VWS V12.07,2013-01-04 11:15:00,
2013-01-04 05:20:00,10.0,5.9,29.45,SSW,202,0.0,0.0,83,0.00,,,-99.99,VWS V12.07,2013-01-04 11:20:00,
2013-01-04 05:25:00,10.0,5.9,29.44,SSW,202,0.0,0.0,83,0.00,,,-99.99,VWS V12.07,2013-01-04 11:25:00,
2013-01-04 05:30:00,10.0,5.9,29.44,SSW,202,0.0,0.0,83,0.00,,,-99.99,VWS V12.07,2013-01-04 11:30:00,
2013-01-04 05:40:00,10.0,5.9,29.43,SSW,202,0.0,0.0,83,0.00,,,-99.99,VWS V12.07,2013-01-04 11:40:00,
2013-01-04 05:45:00,9.8,5.7,29.44,SSW,202,0.0,0.0,83,0.00,,,-99.99,VWS V12.07,2013-01-04 11:45:00,
2013-01-04 05:50:00,9.8,5.7,29.44,SSW,202,0.0,0.0,83,0.00,,,-99.99,VWS V12.07,2013-01-04 11:50:00,
2013-01-04 05:55:00,9.6,5.5,29.46,SSW,202,0.0,0.0,83,0.00,,,-99.99,VWS V12.07,2013-01-04 11:55:00,
2013-01-04 06:00:00,9.6,5.5,29.47,SSW,202,0.0,0.0,83,0.00,,,-99.99,VWS V12.07,2013-01-04 12:00:00,
2013-01-04 06:10:00,9.6,5.5,29.47,SSW,202,0.0,0.0,83,0.00,,,-99.99,VWS V12.07,2013-01-04 12:10:00,
2013-01-04 06:15:00,9.6,5.5,29.46,SSW,202,0.0,0.0,83,0.00,,,-99.99,VWS V12.07,2013-01-04 12:15:00,
2013-01-04 06:20:00,9.6,5.5,29.46,SSW,202,0.0,0.0,83,0.00,,,-99.99,VWS V12.07,2013-01-04 12:20:00,
2013-01-04 06:25:00,10.0,5.9,29.47,SSW,202,0.0,0.0,83,0.00,,,-99.99,VWS V12.07,2013-01-04 12:25:00,
2013-01-04 06:30:00,10.0,5.9,29.47,SSW,202,0.0,0.0,83,0.00,,,-99.99,VWS V12.07,2013-01-04 12:30:00,
2013-01-04 06:35:00,10.0,5.9,29.48,SSW,202,0.0,0.0,83,0.00,,,-99.99,VWS V12.07,2013-01-04 12:35:00,
2013-01-04 06:40:00,10.0,5.9,29.47,SSW,202,0.0,0.0,83,0.00,,,-99.99,VWS V12.07,2013-01-04 12:40:00,
2013-01-04 06:45:00,10.0,5.9,29.48,SSW,202,0.0,0.0,83,0.00,,,-99.99,VWS V12.07,2013-01-04 12:45:00,
2013-01-04 06:50:00,10.0,5.9,29.47,SSW,202,0.0,0.0,83,0.00,,,-99.99,VWS V12.07,2013-01-04 12:50:00,
2013-01-04 06:55:00,10.0,5.9,29.47,SSW,202,0.0,0.0,83,0.00,,,-99.99,VWS V12.07,2013-01-04 12:55:00,
2013-01-04 07:00:00,10.2,6.1,29.47,SSW,202,0.0,0.0,83,0.00,,,-99.99,VWS V12.07,2013-01-04 13:00:00,
2013-01-04 07:05:00,10.2,6.1,29.46,SSW,202,0.0,0.0,83,0.00,,,-99.99,VWS V12.07,2013-01-04 13:05:00,
2013-01-04 07:10:00,10.2,6.1,29.46,SSW,202,0.0,0.0,83,0.00,,,-99.99,VWS V12.07,2013-01-04 13:10:00,
2013-01-04 07:15:00,10.2,6.1,29.45,SSW,202,0.0,0.0,83,0.00,,,-99.99,VWS V12.07,2013-01-04 13:15:00,
2013-01-04 07:20:00,10.2,6.1,29.44,SSW,202,0.0,0.0,83,0.00,,,-99.99,VWS V12.07,2013-01-04 13:20:00,
2013-01-04 07:25:00,10.2,6.3,29.44,SSW,202,0.0,0.0,84,0.00,,,-99.99,VWS V12.07,2013-01-04 13:25:00,
2013-01-04 07:30:00,10.2,6.3,29.45,SSW,202,0.0,0.0,84,0.00,,,-99.99,VWS V12.07,2013-01-04 13:30:00,
2013-01-04 07:35:00,10.2,6.3,29.46,SSW,202,0.0,0.0,84,0.00,,,-99.99,VWS V12.07,2013-01-04 13:35:00,
2013-01-04 07:40:00,10.2,6.3,29.46,SSW,202,0.0,0.0,84,0.00,,,-99.99,VWS V12.07,2013-01-04 13:40:00,
2013-01-04 07:45:00,10.2,6.3,29.47,SSW,202,0.0,0.0,84,0.00,,,-99.99,VWS V12.07,2013-01-04 13:45:00,
2013-01-04 07:50:00,10.2,6.3,29.47,SSW,202,0.0,0.0,84,0.00,,,-99.99,VWS V12.07,2013-01-04 13:50:00,
2013-01-04 07:55:00,10.2,6.3,29.45,SSW,202,0.0,0.0,84,0.00,,,-99.99,VWS V12.07,2013-01-04 13:55:00,
2013-01-04 08:00:00,10.2,6.3,29.45,SSW,202,0.0,0.0,84,0.00,,,-99.99,VWS V12.07,2013-01-04 14:00:00,
2013-01-04 08:05:00,10.2,6.3,29.46,SSW,202,0.0,0.0,84,0.00,,,-99.99,VWS V12.07,2013-01-04 14:05:00,
2013-01-04 08:10:00,10.2,6.3,29.47,SSW,202,0.0,0.0,84,0.00,,,-99.99,VWS V12.07,2013-01-04 14:10:00,
2013-01-04 08:15:00,10.2,6.3,29.48,SSW,202,0.0,0.0,84,0.00,,,-99.99,VWS V12.07,2013-01-04 14:15:00,
2013-01-04 08:20:00,10.2,6.3,29.49,SSW,202,0.0,0.0,84,0.00,,,-99.99,VWS V12.07,2013-01-04 14:20:00,
2013-01-04 08:25:00,10.2,6.3,29.50,SSW,202,0.0,0.0,84,0.00,,,-99.99,VWS V12.07,2013-01-04 14:25:00,
2013-01-04 08:30:00,10.5,6.6,29.50,SSW,202,0.0,0.0,84,0.00,,,-99.99,VWS V12.07,2013-01-04 14:30:00,
2013-01-04 08:35:00,10.5,6.6,29.50,SSW,202,0.0,0.0,84,0.00,,,-99.99,VWS V12.07,2013-01-04 14:35:00,
2013-01-04 08:40:00,10.7,6.8,29.50,SSW,202,0.0,0.0,84,0.00,,,-99.99,VWS V12.07,2013-01-04 14:40:00,
2013-01-04 08:45:00,10.9,7.0,29.50,SSW,202,0.0,0.0,84,0.00,,,-99.99,VWS V12.07,2013-01-04 14:45:00,
2013-01-04 08:50:00,11.1,7.2,29.50,SSW,202,0.0,0.0,84,0.00,,,-99.99,VWS V12.07,2013-01-04 14:50:00,
2013-01-04 08:55:00,11.3,7.4,29.50,SSW,202,0.0,0.0,84,0.00,,,-99.99,VWS V12.07,2013-01-04 14:55:00,
2013-01-04 09:00:00,11.6,7.7,29.50,SSW,202,0.0,0.0,84,0.00,,,-99.99,VWS V12.07,2013-01-04 15:00:00,
2013-01-04 09:05:00,12.0,8.1,29.50,SSW,202,0.0,0.0,84,0.00,,,-99.99,VWS V12.07,2013-01-04 15:05:00,
2013-01-04 09:10:00,12.2,8.3,29.50,SSW,202,0.0,0.0,84,0.00,,,-99.99,VWS V12.07,2013-01-04 15:10:00,
2013-01-04 09:15:00,12.5,8.6,29.49,SSW,202,0.0,0.0,84,0.00,,,-99.99,VWS V12.07,2013-01-04 15:15:00,
2013-01-04 09:20:00,13.1,9.2,29.49,SSW,202,0.0,0.0,84,0.00,,,-99.99,VWS V12.07,2013-01-04 15:20:00,
2013-01-04 09:25:00,13.2,9.6,29.49,SSW,202,0.0,0.0,85,0.00,,,-99.99,VWS V12.07,2013-01-04 15:25:00,
2013-01-04 09:30:00,13.6,9.9,29.48,SSW,202,0.0,0.0,85,0.00,,,-99.99,VWS V12.07,2013-01-04 15:30:00,
2013-01-04 09:35:00,14.1,10.2,29.48,SSW,202,0.0,0.0,84,0.00,,,-99.99,VWS V12.07,2013-01-04 15:35:00,
2013-01-04 09:40:00,14.3,10.4,29.48,SSW,202,0.0,0.0,84,0.00,,,-99.99,VWS V12.07,2013-01-04 15:40:00,
2013-01-04 09:45:00,14.7,10.8,29.49,SSW,202,5.1,5.1,84,0.00,,,-99.99,VWS V12.07,2013-01-04 15:45:00,
2013-01-04 09:50:00,15.2,11.2,29.49,SSW,202,0.0,5.1,84,0.00,,,-99.99,VWS V12.07,2013-01-04 15:50:00,
2013-01-04 09:55:00,15.6,11.6,29.49,SSW,202,0.0,5.1,84,0.00,,,-99.99,VWS V12.07,2013-01-04 15:55:00,
2013-01-04 10:00:00,15.9,11.9,29.50,SSW,202,0.0,5.1,84,0.00,,,-99.99,VWS V12.07,2013-01-04 16:00:00,
2013-01-04 10:10:00,16.8,12.5,29.50,SSW,202,0.0,0.0,83,0.00,,,-99.99,VWS V12.07,2013-01-04 16:10:00,
2013-01-04 10:15:00,17.2,12.9,29.50,SSW,202,0.0,0.0,83,0.00,,,-99.99,VWS V12.07,2013-01-04 16:15:00,
2013-01-04 10:20:00,17.7,13.4,29.50,SSW,202,0.0,0.0,83,0.00,,,-99.99,VWS V12.07,2013-01-04 16:20:00,
2013-01-04 10:25:00,17.9,13.4,29.49,SSW,202,0.0,0.0,82,0.00,,,-99.99,VWS V12.07,2013-01-04 16:25:00,
2013-01-04 10:30:00,18.5,13.9,29.48,SSW,202,0.0,0.0,82,0.00,,,-99.99,VWS V12.07,2013-01-04 16:30:00,
2013-01-04 10:35:00,18.8,14.2,29.49,SSW,202,0.0,0.0,82,0.00,,,-99.99,VWS V12.07,2013-01-04 16:35:00,
2013-01-04 10:40:00,19.2,14.6,29.50,SSW,202,0.0,0.0,82,0.00,,,-99.99,VWS V12.07,2013-01-04 16:40:00,
2013-01-04 10:45:00,19.5,14.6,29.51,SSW,202,3.3,3.3,81,0.00,,,-99.99,VWS V12.07,2013-01-04 16:45:00,
2013-01-04 10:50:00,19.7,14.8,29.51,SSW,202,0.0,0.0,81,0.00,,,-99.99,VWS V12.07,2013-01-04 16:50:00,
2013-01-04 10:55:00,20.3,15.4,29.52,SSW,202,0.0,3.1,81,0.00,,,-99.99,VWS V12.07,2013-01-04 16:55:00,
2013-01-04 11:00:00,20.4,15.2,29.52,SSW,202,0.0,3.1,80,0.00,,,-99.99,VWS V12.07,2013-01-04 17:00:00,
2013-01-04 11:05:00,21.0,15.8,29.52,SSW,202,2.0,5.1,80,0.00,,,-99.99,VWS V12.07,2013-01-04 17:05:00,
2013-01-04 11:10:00,21.5,16.0,29.52,SSW,202,0.0,5.1,79,0.00,,,-99.99,VWS V12.07,2013-01-04 17:10:00,
2013-01-04 11:15:00,22.2,17.0,29.51,SSW,202,0.0,5.1,80,0.00,,,-99.99,VWS V12.07,2013-01-04 17:15:00,
2013-01-04 11:20:00,22.8,17.3,29.51,SSW,202,2.9,2.9,79,0.00,,,-99.99,VWS V12.07,2013-01-04 17:20:00,
2013-01-04 11:25:00,23.0,17.5,29.51,SSW,202,0.0,2.9,79,0.00,,,-99.99,VWS V12.07,2013-01-04 17:25:00,
2013-01-04 11:30:00,23.5,17.7,29.50,SSW,202,0.0,2.9,78,0.00,,,-99.99,VWS V12.07,2013-01-04 17:30:00,
2013-01-04 11:35:00,23.9,18.0,29.50,SSW,202,0.0,0.0,78,0.00,,,-99.99,VWS V12.07,2013-01-04 17:35:00,
2013-01-04 11:45:00,24.4,17.9,29.50,SSW,202,0.0,0.0,76,0.00,,,-99.99,VWS V12.07,2013-01-04 17:45:00,
2013-01-04 11:50:00,24.6,18.1,29.49,SSW,202,0.0,0.0,76,0.00,,,-99.99,VWS V12.07,2013-01-04 17:50:00,
2013-01-04 11:55:00,24.9,18.4,29.49,SSW,202,0.0,0.0,76,0.00,,,-99.99,VWS V12.07,2013-01-04 17:55:00,
2013-01-04 12:00:00,25.1,18.6,29.49,SSW,202,0.0,0.8,76,0.00,,,-99.99,VWS V12.07,2013-01-04 18:00:00,
2013-01-04 12:05:00,25.5,18.7,29.49,SSW,202,2.0,2.4,75,0.00,,,-99.99,VWS V12.07,2013-01-04 18:05:00,
2013-01-04 12:10:00,25.8,19.3,29.48,SSW,202,0.0,5.8,76,0.00,,,-99.99,VWS V12.07,2013-01-04 18:10:00,
2013-01-04 12:15:00,26.4,19.6,29.48,SSW,202,9.6,9.6,75,0.00,,,-99.99,VWS V12.07,2013-01-04 18:15:00,
2013-01-04 12:20:00,26.9,20.0,29.48,SSW,202,0.0,9.6,75,0.00,,,-99.99,VWS V12.07,2013-01-04 18:20:00,
2013-01-04 12:25:00,27.3,20.4,29.47,SSW,202,0.0,9.6,75,0.00,,,-99.99,VWS V12.07,2013-01-04 18:25:00,
2013-01-04 12:30:00,27.6,20.4,29.48,SSW,202,0.0,9.6,74,0.00,,,-99.99,VWS V12.07,2013-01-04 18:30:00,
2013-01-04 12:35:00,28.0,20.5,29.48,SSW,202,0.0,0.0,73,0.00,,,-99.99,VWS V12.07,2013-01-04 18:35:00,
2013-01-04 12:40:00,28.0,20.5,29.49,SSW,202,0.0,0.0,73,0.00,,,-99.99,VWS V12.07,2013-01-04 18:40:00,
2013-01-04 12:45:00,28.0,20.2,29.50,SSW,202,0.0,0.0,72,0.00,,,-99.99,VWS V12.07,2013-01-04 18:45:00,
2013-01-04 12:50:00,28.0,20.2,29.50,SSW,202,0.6,0.6,72,0.00,,,-99.99,VWS V12.07,2013-01-04 18:50:00,
2013-01-04 13:00:00,28.2,20.4,29.50,SSW,202,0.0,3.3,72,0.00,,,-99.99,VWS V12.07,2013-01-04 19:00:00,
2013-01-04 13:05:00,28.5,20.6,29.50,SSW,202,0.0,0.0,72,0.00,,,-99.99,VWS V12.07,2013-01-04 19:05:00,
2013-01-04 13:10:00,28.5,20.3,29.50,SSW,202,0.0,0.0,71,0.00,,,-99.99,VWS V12.07,2013-01-04 19:10:00,
2013-01-04 13:20:00,28.9,20.7,29.50,SW,225,0.0,7.8,71,0.00,,,-99.99,VWS V12.07,2013-01-04 19:20:00,
2013-01-04 13:25:00,29.1,20.9,29.50,WNW,292,0.0,7.8,71,0.00,,,-99.99,VWS V12.07,2013-01-04 19:25:00,
2013-01-04 13:30:00,29.1,20.5,29.50,SSW,202,0.0,7.8,70,0.00,,,-99.99,VWS V12.07,2013-01-04 19:30:00,
2013-01-04 13:40:00,29.8,21.2,29.50,West,270,4.0,4.0,70,0.00,,,-99.99,VWS V12.07,2013-01-04 19:40:00,
2013-01-04 13:45:00,30.0,21.4,29.50,SW,225,0.0,4.0,70,0.00,,,-99.99,VWS V12.07,2013-01-04 19:45:00,
2013-01-04 13:50:00,30.2,21.3,29.50,SW,225,1.3,2.0,69,0.00,,,-99.99,VWS V12.07,2013-01-04 19:50:00,
2013-01-04 13:55:00,30.3,21.4,29.50,West,270,0.0,2.0,69,0.00,,,-99.99,VWS V12.07,2013-01-04 19:55:00,
2013-01-04 14:05:00,30.5,21.6,29.51,SW,225,0.0,0.0,69,0.00,,,-99.99,VWS V12.07,2013-01-04 20:05:00,
2013-01-04 14:15:00,30.7,21.4,29.52,South,180,0.0,6.2,68,0.00,,,-99.99,VWS V12.07,2013-01-04 20:15:00,
2013-01-04 14:25:00,30.9,21.6,29.51,NW,315,4.6,5.1,68,0.00,,,-99.99,VWS V12.07,2013-01-04 20:25:00,
2013-01-04 14:30:00,31.1,21.4,29.51,SSW,202,2.4,5.1,67,0.00,,,-99.99,VWS V12.07,2013-01-04 20:30:00,
2013-01-04 14:40:00,31.2,21.5,29.51,West,270,0.0,2.4,67,0.00,,,-99.99,VWS V12.07,2013-01-04 20:40:00,
2013-01-04 14:45:00,31.2,21.5,29.50,West,270,1.3,2.4,67,0.00,,,-99.99,VWS V12.07,2013-01-04 20:45:00,
2013-01-04 14:50:00,31.2,21.5,29.50,SSE,158,4.6,4.6,67,0.00,,,-99.99,VWS V12.07,2013-01-04 20:50:00,
2013-01-04 14:55:00,31.2,21.5,29.51,SSW,202,0.0,4.6,67,0.00,,,-99.99,VWS V12.07,2013-01-04 20:55:00,
2013-01-04 15:00:00,31.6,21.9,29.51,SSW,202,5.5,5.5,67,0.00,,,-99.99,VWS V12.07,2013-01-04 21:00:00,
2013-01-04 15:05:00,31.6,21.9,29.52,SW,225,0.0,5.5,67,0.00,,,-99.99,VWS V12.07,2013-01-04 21:05:00,
2013-01-04 15:15:00,31.8,22.1,29.53,SSW,202,0.0,5.5,67,0.00,,,-99.99,VWS V12.07,2013-01-04 21:15:00,
2013-01-04 15:20:00,31.8,22.1,29.53,West,270,0.0,0.0,67,0.00,,,-99.99,VWS V12.07,2013-01-04 21:20:00,
2013-01-04 15:25:00,31.8,22.1,29.53,West,270,0.0,0.0,67,0.00,,,-99.99,VWS V12.07,2013-01-04 21:25:00,
2013-01-04 15:30:00,32.1,22.4,29.53,WSW,248,0.0,0.0,67,0.00,,,-99.99,VWS V12.07,2013-01-04 21:30:00,
2013-01-04 15:35:00,32.1,22.0,29.53,South,180,0.0,0.0,66,0.00,,,-99.99,VWS V12.07,2013-01-04 21:35:00,
2013-01-04 15:40:00,32.1,22.0,29.53,WSW,248,0.0,0.0,66,0.00,,,-99.99,VWS V12.07,2013-01-04 21:40:00,
2013-01-04 15:45:00,32.1,22.0,29.54,SW,225,0.0,0.0,66,0.00,,,-99.99,VWS V12.07,2013-01-04 21:45:00,
2013-01-04 15:50:00,32.1,22.0,29.54,SSW,202,0.0,5.1,66,0.00,,,-99.99,VWS V12.07,2013-01-04 21:50:00,
2013-01-04 16:00:00,31.8,21.8,29.54,SW,225,0.0,5.1,66,0.00,,,-99.99,VWS V12.07,2013-01-04 22:00:00,
2013-01-04 16:05:00,31.6,21.6,29.55,SW,225,0.0,0.0,66,0.00,,,-99.99,VWS V12.07,2013-01-04 22:05:00,
2013-01-04 16:10:00,31.2,21.2,29.55,SW,225,0.0,0.0,66,0.00,,,-99.99,VWS V12.07,2013-01-04 22:10:00,
2013-01-04 16:20:00,30.3,20.3,29.56,WSW,248,0.0,0.0,66,0.00,,,-99.99,VWS V12.07,2013-01-04 22:20:00,
2013-01-04 16:25:00,30.0,20.0,29.56,WSW,248,0.0,0.0,66,0.00,,,-99.99,VWS V12.07,2013-01-04 22:25:00,
2013-01-04 16:30:00,29.6,20.0,29.56,WSW,248,0.0,0.0,67,0.00,,,-99.99,VWS V12.07,2013-01-04 22:30:00,
2013-01-04 16:40:00,29.1,19.5,29.55,WSW,248,0.0,0.0,67,0.00,,,-99.99,VWS V12.07,2013-01-04 22:40:00,
2013-01-04 16:45:00,28.9,19.7,29.55,WSW,248,0.0,0.0,68,0.00,,,-99.99,VWS V12.07,2013-01-04 22:45:00,
2013-01-04 16:50:00,28.5,19.3,29.54,WSW,248,0.0,0.0,68,0.00,,,-99.99,VWS V12.07,2013-01-04 22:50:00,
2013-01-04 16:55:00,28.2,19.0,29.54,South,180,0.0,0.0,68,0.00,,,-99.99,VWS V12.07,2013-01-04 22:55:00,
2013-01-04 17:00:00,28.2,19.0,29.55,South,180,0.0,0.0,68,0.00,,,-99.99,VWS V12.07,2013-01-04 23:00:00,
2013-01-04 17:05:00,28.0,18.8,29.55,South,180,0.0,0.0,68,0.00,,,-99.99,VWS V12.07,2013-01-04 23:05:00,
2013-01-04 17:10:00,27.6,18.8,29.55,South,180,0.0,0.0,69,0.00,,,-99.99,VWS V12.07,2013-01-04 23:10:00,
2013-01-04 17:15:00,27.5,18.7,29.56,South,180,0.0,0.0,69,0.00,,,-99.99,VWS V12.07,2013-01-04 23:15:00,
2013-01-04 17:20:00,27.1,18.3,29.56,South,180,0.0,0.0,69,0.00,,,-99.99,VWS V12.07,2013-01-04 23:20:00,
2013-01-04 17:25:00,27.1,18.3,29.57,South,180,0.0,0.0,69,0.00,,,-99.99,VWS V12.07,2013-01-04 23:25:00,
2013-01-04 17:30:00,26.9,18.1,29.57,South,180,0.0,0.0,69,0.00,,,-99.99,VWS V12.07,2013-01-04 23:30:00,
2013-01-04 17:35:00,26.7,17.9,29.57,South,180,0.0,0.0,69,0.00,,,-99.99,VWS V12.07,2013-01-04 23:35:00,
2013-01-04 17:40:00,26.4,18.0,29.57,SSW,202,0.0,0.0,70,0.00,,,-99.99,VWS V12.07,2013-01-04 23:40:00,
2013-01-04 17:45:00,26.4,18.0,29.57,SSW,202,0.0,0.0,70,0.00,,,-99.99,VWS V12.07,2013-01-04 23:45:00,
2013-01-04 17:50:00,26.4,18.0,29.57,SSW,202,0.0,0.0,70,0.00,,,-99.99,VWS V12.07,2013-01-04 23:50:00,
2013-01-04 17:55:00,26.2,17.8,29.58,South,180,0.0,0.0,70,0.00,,,-99.99,VWS V12.07,2013-01-04 23:55:00,
2013-01-04 18:00:00,26.2,17.8,29.58,SSW,202,0.0,2.6,70,0.00,,,-99.99,VWS V12.07,2013-01-05 00:00:00,
2013-01-04 18:05:00,26.2,17.8,29.59,SSW,202,0.0,0.0,70,0.00,,,-99.99,VWS V12.07,2013-01-05 00:05:00,
2013-01-04 18:10:00,26.0,17.6,29.59,SSW,202,0.0,0.0,70,0.00,,,-99.99,VWS V12.07,2013-01-05 00:10:00,
2013-01-04 18:15:00,25.8,17.4,29.59,SSW,202,0.0,0.0,70,0.00,,,-99.99,VWS V12.07,2013-01-05 00:15:00,
2013-01-04 18:20:00,25.8,17.4,29.59,SSW,202,0.0,0.0,70,0.00,,,-99.99,VWS V12.07,2013-01-05 00:20:00,
2013-01-04 18:25:00,25.7,17.6,29.59,SSW,202,0.0,0.0,71,0.00,,,-99.99,VWS V12.07,2013-01-05 00:25:00,
2013-01-04 18:30:00,25.5,17.4,29.60,SSW,202,0.0,0.0,71,0.00,,,-99.99,VWS V12.07,2013-01-05 00:30:00,
2013-01-04 18:35:00,25.5,17.4,29.60,SSW,202,0.0,0.0,71,0.00,,,-99.99,VWS V12.07,2013-01-05 00:35:00,
2013-01-04 18:40:00,25.3,17.2,29.60,SSW,202,0.0,0.0,71,0.00,,,-99.99,VWS V12.07,2013-01-05 00:40:00,
2013-01-04 18:45:00,25.3,17.2,29.60,SSW,202,0.0,0.0,71,0.00,,,-99.99,VWS V12.07,2013-01-05 00:45:00,
2013-01-04 18:50:00,25.1,17.0,29.60,SSW,202,0.0,0.0,71,0.00,,,-99.99,VWS V12.07,2013-01-05 00:50:00,
2013-01-04 18:55:00,24.9,16.8,29.60,SW,225,0.0,0.0,71,0.00,,,-99.99,VWS V12.07,2013-01-05 00:55:00,
2013-01-04 19:00:00,24.6,16.5,29.60,SW,225,0.0,0.0,71,0.00,,,-99.99,VWS V12.07,2013-01-05 01:00:00,
2013-01-04 19:05:00,24.6,16.5,29.60,SW,225,0.0,0.0,71,0.00,,,-99.99,VWS V12.07,2013-01-05 01:05:00,
2013-01-04 19:10:00,24.2,16.2,29.60,SW,225,0.0,0.0,71,0.00,,,-99.99,VWS V12.07,2013-01-05 01:10:00,
2013-01-04 19:15:00,24.0,16.0,29.61,SW,225,0.0,0.0,71,0.00,,,-99.99,VWS V12.07,2013-01-05 01:15:00,
2013-01-04 19:20:00,23.9,15.9,29.62,SW,225,0.0,0.0,71,0.00,,,-99.99,VWS V12.07,2013-01-05 01:20:00,
2013-01-04 19:25:00,23.5,15.8,29.62,SW,225,0.0,0.0,72,0.00,,,-99.99,VWS V12.07,2013-01-05 01:25:00,
2013-01-04 19:30:00,23.1,15.4,29.61,SW,225,0.0,0.0,72,0.00,,,-99.99,VWS V12.07,2013-01-05 01:30:00,
2013-01-04 19:35:00,22.8,15.1,29.62,SW,225,0.0,0.0,72,0.00,,,-99.99,VWS V12.07,2013-01-05 01:35:00,
2013-01-04 19:40:00,22.6,14.9,29.61,SW,225,0.0,0.0,72,0.00,,,-99.99,VWS V12.07,2013-01-05 01:40:00,
2013-01-04 19:45:00,22.2,14.6,29.61,SW,225,0.0,0.0,72,0.00,,,-99.99,VWS V12.07,2013-01-05 01:45:00,
2013-01-04 19:50:00,21.9,14.3,29.62,SW,225,0.0,0.0,72,0.00,,,-99.99,VWS V12.07,2013-01-05 01:50:00,
2013-01-04 20:00:00,21.3,14.0,29.62,SW,225,0.0,0.0,73,0.00,,,-99.99,VWS V12.07,2013-01-05 02:00:00,
2013-01-04 20:05:00,21.0,13.7,29.63,SW,225,0.0,0.0,73,0.00,,,-99.99,VWS V12.07,2013-01-05 02:05:00,
2013-01-04 20:10:00,20.4,13.1,29.62,SW,225,0.0,0.0,73,0.00,,,-99.99,VWS V12.07,2013-01-05 02:10:00,
2013-01-04 20:15:00,20.4,13.1,29.63,SW,225,0.0,0.0,73,0.00,,,-99.99,VWS V12.07,2013-01-05 02:15:00,
2013-01-04 20:20:00,20.1,12.9,29.63,SW,225,0.0,0.0,73,0.00,,,-99.99,VWS V12.07,2013-01-05 02:20:00,
2013-01-04 20:30:00,19.5,12.3,29.63,SW,225,0.0,0.0,73,0.00,,,-99.99,VWS V12.07,2013-01-05 02:30:00,
2013-01-04 20:40:00,19.0,12.1,29.63,SW,225,0.0,0.0,74,0.00,,,-99.99,VWS V12.07,2013-01-05 02:40:00,
2013-01-04 20:45:00,18.8,11.9,29.63,SW,225,0.0,0.0,74,0.00,,,-99.99,VWS V12.07,2013-01-05 02:45:00,
2013-01-04 20:50:00,18.6,11.7,29.63,SW,225,0.0,0.0,74,0.00,,,-99.99,VWS V12.07,2013-01-05 02:50:00,
2013-01-04 20:55:00,18.3,11.7,29.63,SW,225,0.0,0.0,75,0.00,,,-99.99,VWS V12.07,2013-01-05 02:55:00,
2013-01-04 21:05:00,17.9,11.3,29.64,SW,225,0.0,0.0,75,0.00,,,-99.99,VWS V12.07,2013-01-05 03:05:00,
2013-01-04 21:10:00,17.7,11.1,29.64,SW,225,0.0,0.0,75,0.00,,,-99.99,VWS V12.07,2013-01-05 03:10:00,
2013-01-04 21:15:00,17.7,11.1,29.64,SW,225,0.0,0.0,75,0.00,,,-99.99,VWS V12.07,2013-01-05 03:15:00,
2013-01-04 21:20:00,17.4,10.9,29.64,SW,225,0.0,0.0,75,0.00,,,-99.99,VWS V12.07,2013-01-05 03:20:00,
2013-01-04 21:25:00,17.4,10.9,29.64,SW,225,0.0,0.0,75,0.00,,,-99.99,VWS V12.07,2013-01-05 03:25:00,
2013-01-04 21:35:00,17.2,10.9,29.65,SW,225,0.0,0.0,76,0.00,,,-99.99,VWS V12.07,2013-01-05 03:35:00,
2013-01-04 21:40:00,16.8,10.6,29.65,SW,225,0.0,0.0,76,0.00,,,-99.99,VWS V12.07,2013-01-05 03:40:00,
2013-01-04 21:50:00,16.8,10.6,29.65,SW,225,0.0,0.0,76,0.00,,,-99.99,VWS V12.07,2013-01-05 03:50:00,
2013-01-04 21:55:00,16.5,10.3,29.65,SW,225,0.0,0.0,76,0.00,,,-99.99,VWS V12.07,2013-01-05 03:55:00,
2013-01-04 22:05:00,16.3,10.1,29.65,SW,225,0.0,0.0,76,0.00,,,-99.99,VWS V12.07,2013-01-05 04:05:00,
2013-01-04 22:10:00,16.3,10.4,29.65,SW,225,0.0,0.0,77,0.00,,,-99.99,VWS V12.07,2013-01-05 04:10:00,
2013-01-04 22:20:00,15.9,10.0,29.65,SW,225,0.0,0.0,77,0.00,,,-99.99,VWS V12.07,2013-01-05 04:20:00,
2013-01-04 22:25:00,15.8,9.9,29.65,SW,225,0.0,0.0,77,0.00,,,-99.99,VWS V12.07,2013-01-05 04:25:00,
2013-01-04 22:30:00,15.6,9.7,29.65,SW,225,0.0,0.0,77,0.00,,,-99.99,VWS V12.07,2013-01-05 04:30:00,
2013-01-04 22:35:00,15.6,9.7,29.65,SW,225,0.0,0.0,77,0.00,,,-99.99,VWS V12.07,2013-01-05 04:35:00,
2013-01-04 22:40:00,15.4,9.5,29.65,SW,225,0.0,0.0,77,0.00,,,-99.99,VWS V12.07,2013-01-05 04:40:00,
2013-01-04 22:45:00,15.2,9.3,29.65,SW,225,0.0,0.0,77,0.00,,,-99.99,VWS V12.07,2013-01-05 04:45:00,
2013-01-04 22:50:00,15.0,9.1,29.66,SW,225,0.0,0.0,77,0.00,,,-99.99,VWS V12.07,2013-01-05 04:50:00,
2013-01-04 22:55:00,14.9,9.0,29.66,SW,225,0.0,0.0,77,0.00,,,-99.99,VWS V12.07,2013-01-05 04:55:00,
2013-01-04 23:00:00,14.7,8.8,29.66,SW,225,0.0,0.0,77,0.00,,,-99.99,VWS V12.07,2013-01-05 05:00:00,
2013-01-04 23:05:00,14.7,8.8,29.66,SW,225,0.0,0.0,77,0.00,,,-99.99,VWS V12.07,2013-01-05 05:05:00,
2013-01-04 23:10:00,14.5,8.6,29.67,SW,225,0.0,0.0,77,0.00,,,-99.99,VWS V12.07,2013-01-05 05:10:00,
2013-01-04 23:15:00,14.3,8.7,29.67,SW,225,0.0,0.0,78,0.00,,,-99.99,VWS V12.07,2013-01-05 05:15:00,
2013-01-04 23:20:00,14.1,8.5,29.67,SW,225,0.0,0.0,78,0.00,,,-99.99,VWS V12.07,2013-01-05 05:20:00,
2013-01-04 23:25:00,13.8,8.2,29.67,SW,225,0.0,0.0,78,0.00,,,-99.99,VWS V12.07,2013-01-05 05:25:00,
2013-01-04 23:30:00,13.8,8.2,29.66,SW,225,0.0,0.0,78,0.00,,,-99.99,VWS V12.07,2013-01-05 05:30:00,
2013-01-04 23:35:00,13.6,8.0,29.66,SW,225,0.0,0.0,78,0.00,,,-99.99,VWS V12.07,2013-01-05 05:35:00,
2013-01-04 23:40:00,13.2,7.6,29.66,SW,225,0.0,0.0,78,0.00,,,-99.99,VWS V12.07,2013-01-05 05:40:00,
2013-01-04 23:45:00,13.2,7.6,29.66,SW,225,0.0,0.0,78,0.00,,,-99.99,VWS V12.07,2013-01-05 05:45:00,
2013-01-04 23:50:00,13.1,7.5,29.66,SW,225,0.0,0.0,78,0.00,,,-99.99,VWS V12.07,2013-01-05 05:50:00,
2013-01-04 23:55:00,12.9,7.3,29.66,SW,225,0.0,0.0,78,0.00,,,-99.99,VWS V12.07,2013-01-05 05:55:00,